createdAt,value
2023-05-14T00:00:01.333Z,68.28
2023-05-14T00:01:01.430Z,68.23
2023-05-14T00:02:01.575Z,68.18
2023-05-14T00:03:01.596Z,68.08
2023-05-14T00:04:01.717Z,68.12
2023-05-14T00:05:01.732Z,68.47
2023-05-14T00:06:01.821Z,68.41
2023-05-14T00:07:01.872Z,68.47
2023-05-14T00:08:01.955Z,68.39
2023-05-14T00:09:02.048Z,68.21
2023-05-14T00:10:02.118Z,68.52
2023-05-14T00:11:02.178Z,68.46
2023-05-14T00:12:02.267Z,68.48
2023-05-14T00:13:02.429Z,68.51
2023-05-14T00:14:02.456Z,68.48
2023-05-14T00:15:02.554Z,68.46
2023-05-14T00:16:02.652Z,68.31
2023-05-14T00:17:02.722Z,68.37
2023-05-14T00:18:02.837Z,68.40
2023-05-14T00:19:02.925Z,68.75
2023-05-14T00:20:02.988Z,68.65
2023-05-14T00:21:03.096Z,68.58
2023-05-14T00:22:03.199Z,68.62
2023-05-14T00:23:03.253Z,68.77
2023-05-14T00:24:03.355Z,68.70
2023-05-14T00:25:03.433Z,68.77
2023-05-14T00:26:03.527Z,68.81
2023-05-14T00:27:03.626Z,68.77
2023-05-14T00:28:03.720Z,68.92
2023-05-14T00:29:03.809Z,68.95
2023-05-14T00:30:03.899Z,68.90
2023-05-14T00:31:04.034Z,68.84
2023-05-14T00:32:04.074Z,68.79
2023-05-14T00:33:04.241Z,68.81
2023-05-14T00:34:04.264Z,68.83
2023-05-14T00:35:04.429Z,69.01
2023-05-14T00:36:04.454Z,68.99
2023-05-14T00:37:04.493Z,69.09
2023-05-14T00:38:04.604Z,69.19
2023-05-14T00:39:04.678Z,69.14
2023-05-14T00:40:04.738Z,69.08
2023-05-14T00:41:04.797Z,68.94
2023-05-14T00:42:04.848Z,68.76
2023-05-14T00:43:04.967Z,68.57
2023-05-14T00:44:05.053Z,68.71
2023-05-14T00:45:05.102Z,68.47
2023-05-14T00:46:05.203Z,68.30
2023-05-14T00:47:05.487Z,68.61
2023-05-14T00:48:05.411Z,68.49
2023-05-14T00:49:05.442Z,68.51
2023-05-14T00:50:05.539Z,68.65
2023-05-14T00:51:05.624Z,68.83
2023-05-14T00:52:05.703Z,68.98
2023-05-14T00:53:05.797Z,69.35
2023-05-14T00:54:05.888Z,69.66
2023-05-14T00:55:05.975Z,69.74
2023-05-14T00:56:06.066Z,69.96
2023-05-14T00:57:06.111Z,70.25
2023-05-14T00:58:06.200Z,70.40
2023-05-14T00:59:06.307Z,70.48
2023-05-14T01:00:06.362Z,70.53
2023-05-14T01:01:06.513Z,70.66
2023-05-14T01:02:06.514Z,70.67
2023-05-14T01:03:06.722Z,70.82
2023-05-14T01:04:06.828Z,70.92
2023-05-14T01:05:06.726Z,70.98
2023-05-14T01:06:06.780Z,71.18
2023-05-14T01:07:06.858Z,70.92
2023-05-14T01:08:06.985Z,70.93
2023-05-14T01:09:07.066Z,70.73
2023-05-14T01:10:07.137Z,70.94
2023-05-14T01:11:07.236Z,70.94
2023-05-14T01:12:07.327Z,71.00
2023-05-14T01:13:07.417Z,70.88
2023-05-14T01:14:07.530Z,70.86
2023-05-14T01:15:07.634Z,71.04
2023-05-14T01:16:07.714Z,71.06
2023-05-14T01:17:07.764Z,71.09
2023-05-14T01:18:07.907Z,71.25
2023-05-14T01:19:08.005Z,71.37
2023-05-14T01:20:08.027Z,71.31
2023-05-14T01:21:08.092Z,71.41
2023-05-14T01:22:08.145Z,71.44
2023-05-14T01:23:08.220Z,71.41
2023-05-14T01:24:08.319Z,71.54
2023-05-14T01:25:08.381Z,71.60
2023-05-14T01:26:08.463Z,71.51
2023-05-14T01:27:08.547Z,71.55
2023-05-14T01:28:08.636Z,71.74
2023-05-14T01:29:08.714Z,71.66
2023-05-14T01:30:08.751Z,71.78
2023-05-14T01:31:08.843Z,71.98
2023-05-14T01:32:08.998Z,72.11
2023-05-14T01:33:09.018Z,71.98
2023-05-14T01:34:09.070Z,71.97
2023-05-14T01:35:09.166Z,71.84
2023-05-14T01:36:09.250Z,72.05
2023-05-14T01:37:09.305Z,72.01
2023-05-14T01:38:09.410Z,71.81
2023-05-14T01:39:09.496Z,71.89
2023-05-14T01:40:09.575Z,71.82
2023-05-14T01:41:09.658Z,71.62
2023-05-14T01:42:09.762Z,71.66
2023-05-14T01:43:09.866Z,71.67
2023-05-14T01:44:09.919Z,71.52
2023-05-14T01:45:10.023Z,71.47
2023-05-14T01:46:10.123Z,71.46
2023-05-14T01:47:10.169Z,71.24
2023-05-14T01:48:10.270Z,71.38
2023-05-14T01:49:10.314Z,71.33
2023-05-14T01:50:10.409Z,71.61
2023-05-14T01:51:10.498Z,71.67
2023-05-14T01:52:10.608Z,71.81
2023-05-14T01:53:10.670Z,71.70
2023-05-14T01:54:10.753Z,71.71
2023-05-14T01:55:10.859Z,71.82
2023-05-14T01:56:10.926Z,71.73
2023-05-14T01:57:11.019Z,71.98
2023-05-14T01:58:11.090Z,71.91
2023-05-14T01:59:11.177Z,71.92
2023-05-14T02:00:11.274Z,72.04
2023-05-14T02:01:11.380Z,71.96
2023-05-14T02:02:11.464Z,71.97
2023-05-14T02:03:11.596Z,72.04
2023-05-14T02:04:11.614Z,72.19
2023-05-14T02:05:11.666Z,72.17
2023-05-14T02:06:11.748Z,72.19
2023-05-14T02:07:11.824Z,72.19
2023-05-14T02:08:11.933Z,72.12
2023-05-14T02:09:12.044Z,72.14
2023-05-14T02:10:12.090Z,72.26
2023-05-14T02:11:12.173Z,72.23
2023-05-14T02:12:12.232Z,72.22
2023-05-14T02:13:12.335Z,72.14
2023-05-14T02:14:12.388Z,72.09
2023-05-14T02:15:12.484Z,72.16
2023-05-14T02:16:12.609Z,72.12
2023-05-14T02:17:12.665Z,72.08
2023-05-14T02:18:12.898Z,72.15
2023-05-14T02:19:12.953Z,72.31
2023-05-14T02:20:12.931Z,72.32
2023-05-14T02:21:13.032Z,72.46
2023-05-14T02:22:13.080Z,72.59
2023-05-14T02:23:13.170Z,72.49
2023-05-14T02:24:13.275Z,72.48
2023-05-14T02:25:13.319Z,72.42
2023-05-14T02:26:13.422Z,72.39
2023-05-14T02:27:13.502Z,72.37
2023-05-14T02:28:13.596Z,72.54
2023-05-14T02:29:13.713Z,72.50
2023-05-14T02:30:13.780Z,72.58
2023-05-14T02:31:13.874Z,72.56
2023-05-14T02:32:13.966Z,72.57
2023-05-14T02:33:14.143Z,72.54
2023-05-14T02:34:14.147Z,72.72
2023-05-14T02:35:14.205Z,72.72
2023-05-14T02:36:14.307Z,72.89
2023-05-14T02:37:14.363Z,73.04
2023-05-14T02:38:14.444Z,73.32
2023-05-14T02:39:14.548Z,73.13
2023-05-14T02:40:14.603Z,73.16
2023-05-14T02:41:14.695Z,73.32
2023-05-14T02:42:14.811Z,73.77
2023-05-14T02:43:14.878Z,73.51
2023-05-14T02:44:14.959Z,73.44
2023-05-14T02:45:15.075Z,73.49
2023-05-14T02:46:15.224Z,73.45
2023-05-14T02:47:15.231Z,73.46
2023-05-14T02:48:15.324Z,73.37
2023-05-14T02:49:15.400Z,73.33
2023-05-14T02:50:15.518Z,73.46
2023-05-14T02:51:15.583Z,73.46
2023-05-14T02:52:15.677Z,73.46
2023-05-14T02:53:15.734Z,73.70
2023-05-14T02:54:15.831Z,73.50
2023-05-14T02:55:15.893Z,73.72
2023-05-14T02:56:15.958Z,73.89
2023-05-14T02:57:16.061Z,73.75
2023-05-14T02:58:16.114Z,73.88
2023-05-14T02:59:16.202Z,73.90
2023-05-14T03:00:16.296Z,74.04
2023-05-14T03:01:16.371Z,74.05
2023-05-14T03:02:16.444Z,74.05
2023-05-14T03:03:16.580Z,73.91
2023-05-14T03:04:16.561Z,73.84
2023-05-14T03:05:16.675Z,73.64
2023-05-14T03:06:16.734Z,73.59
2023-05-14T03:07:16.808Z,73.90
2023-05-14T03:08:16.861Z,73.97
2023-05-14T03:09:16.959Z,73.91
2023-05-14T03:10:17.007Z,74.13
2023-05-14T03:11:17.103Z,74.14
2023-05-14T03:12:17.180Z,74.20
2023-05-14T03:13:17.230Z,74.20
2023-05-14T03:14:17.313Z,74.21
2023-05-14T03:15:17.425Z,74.38
2023-05-14T03:16:17.541Z,74.49
2023-05-14T03:17:17.559Z,74.80
2023-05-14T03:18:17.647Z,74.65
2023-05-14T03:19:17.826Z,74.71
2023-05-14T03:20:17.802Z,74.79
2023-05-14T03:21:17.919Z,74.72
2023-05-14T03:22:17.941Z,74.79
2023-05-14T03:23:18.030Z,74.76
2023-05-14T03:24:18.126Z,74.68
2023-05-14T03:25:18.209Z,74.53
2023-05-14T03:26:18.323Z,74.43
2023-05-14T03:27:18.374Z,74.22
2023-05-14T03:28:18.467Z,74.19
2023-05-14T03:29:18.561Z,73.88
2023-05-14T03:30:18.642Z,74.11
2023-05-14T03:31:18.837Z,73.99
2023-05-14T03:32:18.855Z,74.05
2023-05-14T03:33:18.932Z,74.02
2023-05-14T03:34:19.005Z,73.94
2023-05-14T03:35:19.100Z,74.04
2023-05-14T03:36:19.190Z,74.18
2023-05-14T03:37:19.274Z,74.07
2023-05-14T03:38:19.338Z,74.16
2023-05-14T03:39:19.416Z,74.02
2023-05-14T03:40:19.520Z,73.96
2023-05-14T03:41:19.569Z,73.90
2023-05-14T03:42:19.646Z,73.93
2023-05-14T03:43:19.699Z,73.92
2023-05-14T03:44:19.787Z,73.98
2023-05-14T03:45:19.881Z,74.11
2023-05-14T03:46:19.979Z,74.20
2023-05-14T03:47:20.094Z,74.17
2023-05-14T03:48:20.249Z,74.20
2023-05-14T03:49:20.227Z,74.30
2023-05-14T03:50:20.322Z,74.27
2023-05-14T03:51:20.425Z,74.39
2023-05-14T03:52:20.504Z,74.28
2023-05-14T03:53:20.594Z,74.39
2023-05-14T03:54:21.261Z,74.36
2023-05-14T03:55:20.753Z,74.38
2023-05-14T03:56:20.822Z,74.21
2023-05-14T03:57:20.910Z,74.19
2023-05-14T03:58:20.998Z,74.17
2023-05-14T03:59:21.077Z,74.15
2023-05-14T04:00:21.489Z,74.08
2023-05-14T04:01:21.276Z,73.88
2023-05-14T04:02:21.457Z,74.09
2023-05-14T04:03:21.573Z,74.12
2023-05-14T04:04:21.551Z,73.93
2023-05-14T04:05:21.562Z,73.75
2023-05-14T04:06:21.615Z,73.63
2023-05-14T04:07:21.704Z,73.49
2023-05-14T04:08:21.805Z,73.28
2023-05-14T04:09:21.884Z,73.37
2023-05-14T04:10:22.399Z,73.10
2023-05-14T04:11:22.035Z,73.12
2023-05-14T04:12:22.122Z,73.00
2023-05-14T04:13:22.217Z,72.89
2023-05-14T04:14:22.313Z,73.19
2023-05-14T04:15:22.404Z,73.28
2023-05-14T04:16:22.577Z,73.12
2023-05-14T04:17:22.575Z,73.20
2023-05-14T04:18:22.676Z,73.13
2023-05-14T04:19:22.760Z,72.98
2023-05-14T04:20:22.961Z,72.97
2023-05-14T04:21:22.909Z,72.97
2023-05-14T04:22:22.962Z,73.07
2023-05-14T04:23:23.049Z,73.00
2023-05-14T04:24:23.148Z,72.82
2023-05-14T04:25:23.195Z,72.64
2023-05-14T04:26:23.297Z,72.62
2023-05-14T04:27:23.386Z,72.46
2023-05-14T04:28:23.454Z,72.46
2023-05-14T04:29:23.511Z,72.59
2023-05-14T04:30:23.831Z,72.28
2023-05-14T04:31:23.913Z,72.20
2023-05-14T04:32:23.803Z,71.96
2023-05-14T04:33:23.847Z,71.91
2023-05-14T04:34:23.951Z,71.91
2023-05-14T04:35:25.152Z,72.04
2023-05-14T04:36:24.093Z,71.93
2023-05-14T04:37:24.197Z,71.93
2023-05-14T04:38:24.270Z,71.72
2023-05-14T04:39:24.364Z,71.68
2023-05-14T04:40:24.764Z,71.69
2023-05-14T04:41:24.521Z,71.53
2023-05-14T04:42:24.599Z,71.51
2023-05-14T04:43:24.699Z,71.58
2023-05-14T04:44:24.793Z,71.42
2023-05-14T04:45:24.871Z,71.28
2023-05-14T04:46:25.206Z,71.39
2023-05-14T04:47:25.084Z,71.29
2023-05-14T04:48:25.146Z,70.91
2023-05-14T04:49:25.242Z,70.70
2023-05-14T04:50:25.556Z,70.87
2023-05-14T04:51:25.387Z,71.00
2023-05-14T04:52:25.487Z,70.52
2023-05-14T04:53:25.556Z,70.73
2023-05-14T04:54:25.676Z,70.74
2023-05-14T04:55:25.733Z,70.79
2023-05-14T04:56:25.795Z,70.55
2023-05-14T04:57:25.887Z,70.81
2023-05-14T04:58:25.942Z,70.25
2023-05-14T04:59:26.034Z,70.28
2023-05-14T05:00:26.419Z,70.53
2023-05-14T05:01:26.238Z,70.42
2023-05-14T05:02:26.324Z,70.51
2023-05-14T05:03:26.475Z,70.88
2023-05-14T05:04:26.429Z,70.73
2023-05-14T05:05:26.502Z,70.79
2023-05-14T05:06:26.603Z,70.97
2023-05-14T05:07:26.705Z,70.81
2023-05-14T05:08:26.824Z,71.15
2023-05-14T05:09:26.849Z,70.99
2023-05-14T05:10:27.084Z,70.64
2023-05-14T05:11:27.005Z,70.62
2023-05-14T05:12:27.109Z,70.94
2023-05-14T05:13:27.174Z,70.57
2023-05-14T05:14:27.242Z,70.27
2023-05-14T05:15:27.335Z,70.25
2023-05-14T05:16:27.547Z,69.79
2023-05-14T05:17:27.534Z,69.65
2023-05-14T05:18:27.598Z,69.65
2023-05-14T05:19:39.582Z,69.30
2023-05-14T05:20:27.746Z,69.11
2023-05-14T05:21:27.794Z,68.96
2023-05-14T05:22:27.896Z,68.51
2023-05-14T05:23:27.977Z,68.25
2023-05-14T05:24:28.069Z,67.80
2023-05-14T05:25:28.153Z,67.63
2023-05-14T05:26:28.228Z,67.71
2023-05-14T05:27:28.296Z,68.22
2023-05-14T05:28:28.384Z,68.52
2023-05-14T05:29:28.472Z,68.67
2023-05-14T05:30:28.560Z,68.44
2023-05-14T05:31:28.673Z,68.34
2023-05-14T05:32:28.768Z,68.42
2023-05-14T05:33:28.840Z,68.97
2023-05-14T05:34:28.891Z,69.02
2023-05-14T05:35:28.996Z,68.67
2023-05-14T05:36:29.089Z,68.72
2023-05-14T05:37:29.156Z,69.14
2023-05-14T05:38:29.263Z,68.90
2023-05-14T05:39:29.314Z,68.72
2023-05-14T05:40:29.409Z,68.21
2023-05-14T05:41:29.494Z,68.07
2023-05-14T05:42:29.583Z,68.20
2023-05-14T05:43:29.672Z,68.20
2023-05-14T05:44:29.772Z,68.20
2023-05-14T05:45:29.830Z,68.08
2023-05-14T05:46:30.022Z,68.31
2023-05-14T05:47:30.010Z,68.52
2023-05-14T05:48:30.037Z,68.69
2023-05-14T05:49:30.123Z,68.10
2023-05-14T05:50:30.204Z,68.17
2023-05-14T05:51:30.299Z,67.97
2023-05-14T05:52:30.385Z,67.86
2023-05-14T05:53:30.478Z,67.91
2023-05-14T05:54:30.583Z,68.21
2023-05-14T05:55:30.638Z,68.07
2023-05-14T05:56:30.730Z,68.09
2023-05-14T05:57:30.823Z,67.71
2023-05-14T05:58:30.874Z,67.44
2023-05-14T05:59:30.968Z,67.36
2023-05-14T06:00:31.020Z,66.98
2023-05-14T06:01:31.109Z,66.08
2023-05-14T06:02:31.300Z,64.80
2023-05-14T06:03:31.263Z,64.09
2023-05-14T06:04:31.357Z,64.68
2023-05-14T06:05:31.519Z,64.16
2023-05-14T06:06:31.540Z,63.97
2023-05-14T06:07:31.643Z,64.04
2023-05-14T06:08:31.717Z,63.60
2023-05-14T06:09:31.765Z,63.07
2023-05-14T06:10:31.853Z,61.59
2023-05-14T06:11:31.947Z,60.91
2023-05-14T06:12:32.039Z,59.28
2023-05-14T06:13:32.128Z,56.42
2023-05-14T06:14:32.231Z,55.94
2023-05-14T06:15:32.316Z,56.04
2023-05-14T06:16:32.414Z,55.86
2023-05-14T06:17:32.472Z,54.80
2023-05-14T06:18:32.549Z,53.58
2023-05-14T06:19:32.606Z,53.26
2023-05-14T06:20:32.705Z,53.46
2023-05-14T06:21:40.246Z,52.89
2023-05-14T06:22:37.837Z,51.55
2023-05-14T06:23:35.582Z,51.70
2023-05-14T06:24:32.994Z,51.74
2023-05-14T06:25:33.091Z,51.36
2023-05-14T06:26:33.174Z,51.18
2023-05-14T06:27:33.218Z,50.64
2023-05-14T06:28:33.303Z,50.65
2023-05-14T06:29:33.431Z,50.96
2023-05-14T06:30:33.488Z,50.58
2023-05-14T06:31:33.633Z,50.05
2023-05-14T06:32:33.727Z,50.13
2023-05-14T06:33:33.749Z,49.61
2023-05-14T06:34:33.846Z,49.24
2023-05-14T06:35:33.915Z,48.94
2023-05-14T06:36:33.990Z,49.35
2023-05-14T06:37:34.037Z,49.08
2023-05-14T06:38:34.159Z,48.83
2023-05-14T06:39:34.204Z,48.73
2023-05-14T06:40:34.303Z,48.03
2023-05-14T06:41:34.394Z,47.79
2023-05-14T06:42:34.476Z,49.13
2023-05-14T06:43:34.548Z,50.40
2023-05-14T06:44:34.631Z,49.80
2023-05-14T06:45:34.677Z,50.42
2023-05-14T06:46:34.775Z,49.94
2023-05-14T06:47:34.966Z,50.42
2023-05-14T06:48:35.007Z,49.38
2023-05-14T06:49:35.049Z,48.59
2023-05-14T06:50:35.151Z,48.15
2023-05-14T06:51:35.200Z,47.72
2023-05-14T06:52:35.315Z,46.89
2023-05-14T06:53:35.388Z,46.87
2023-05-14T06:54:35.435Z,46.82
2023-05-14T06:55:35.529Z,45.88
2023-05-14T06:56:35.640Z,45.14
2023-05-14T06:57:35.676Z,46.22
2023-05-14T06:58:35.759Z,46.03
2023-05-14T06:59:35.868Z,45.99
2023-05-14T07:00:35.926Z,46.50
2023-05-14T07:01:36.030Z,46.21
2023-05-14T07:02:36.236Z,46.02
2023-05-14T07:03:36.179Z,45.10
2023-05-14T07:04:36.342Z,45.58
2023-05-14T07:05:36.389Z,44.06
2023-05-14T07:06:36.437Z,42.82
2023-05-14T07:07:36.501Z,43.27
2023-05-14T07:08:36.623Z,44.73
2023-05-14T07:09:36.679Z,44.70
2023-05-14T07:10:36.764Z,44.50
2023-05-14T07:11:36.901Z,43.96
2023-05-14T07:12:36.945Z,43.52
2023-05-14T07:13:37.060Z,43.89
2023-05-14T07:14:37.139Z,43.64
2023-05-14T07:15:37.188Z,45.08
2023-05-14T07:16:37.322Z,44.54
2023-05-14T07:17:37.399Z,44.34
2023-05-14T07:18:37.509Z,43.89
2023-05-14T07:19:37.531Z,42.98
2023-05-14T07:20:37.605Z,42.63
2023-05-14T07:21:37.695Z,43.00
2023-05-14T07:22:37.791Z,43.08
2023-05-14T07:23:37.879Z,42.45
2023-05-14T07:24:37.978Z,42.66
2023-05-14T07:25:38.090Z,42.05
2023-05-14T07:26:38.140Z,42.90
2023-05-14T07:27:38.235Z,43.23
2023-05-14T07:28:38.334Z,43.03
2023-05-14T07:29:38.451Z,41.84
2023-05-14T07:30:38.513Z,41.67
2023-05-14T07:31:38.572Z,41.30
2023-05-14T07:32:38.692Z,41.45
2023-05-14T07:33:38.692Z,40.81
2023-05-14T07:34:38.783Z,40.79
2023-05-14T07:35:38.881Z,40.15
2023-05-14T07:36:38.961Z,40.10
2023-05-14T07:37:39.091Z,41.18
2023-05-14T07:38:39.135Z,43.11
2023-05-14T07:39:39.189Z,44.63
2023-05-14T07:40:39.285Z,44.88
2023-05-14T07:41:39.378Z,44.58
2023-05-14T07:42:39.485Z,44.88
2023-05-14T07:43:39.546Z,45.54
2023-05-14T07:44:39.703Z,44.53
2023-05-14T07:45:39.730Z,44.03
2023-05-14T07:46:39.779Z,44.21
2023-05-14T07:47:39.939Z,45.32
2023-05-14T07:48:39.977Z,45.85
2023-05-14T07:49:40.020Z,46.35
2023-05-14T07:50:40.133Z,44.63
2023-05-14T07:51:40.184Z,44.01
2023-05-14T07:52:40.280Z,43.49
2023-05-14T07:53:40.365Z,43.12
2023-05-14T07:54:40.457Z,45.35
2023-05-14T07:55:40.541Z,45.49
2023-05-14T07:56:40.646Z,45.16
2023-05-14T07:57:40.736Z,43.98
2023-05-14T07:58:40.822Z,44.30
2023-05-14T07:59:40.922Z,44.58
2023-05-14T08:00:41.009Z,43.31
2023-05-14T08:01:41.169Z,42.24
2023-05-14T08:02:41.287Z,41.92
2023-05-14T08:03:41.332Z,42.14
2023-05-14T08:04:41.323Z,41.44
2023-05-14T08:05:41.406Z,42.31
2023-05-14T08:06:41.518Z,42.66
2023-05-14T08:07:41.572Z,43.42
2023-05-14T08:08:41.666Z,43.03
2023-05-14T08:09:41.749Z,42.84
2023-05-14T08:10:41.875Z,41.02
2023-05-14T08:11:41.966Z,40.90
2023-05-14T08:12:41.989Z,40.42
2023-05-14T08:13:42.081Z,41.50
2023-05-14T08:14:42.191Z,41.84
2023-05-14T08:15:42.210Z,41.38
2023-05-14T08:16:42.344Z,41.75
2023-05-14T08:17:42.448Z,42.04
2023-05-14T08:18:42.461Z,43.07
2023-05-14T08:19:42.546Z,43.40
2023-05-14T08:20:42.635Z,43.17
2023-05-14T08:21:42.734Z,42.01
2023-05-14T08:22:42.839Z,41.34
2023-05-14T08:23:42.904Z,40.73
2023-05-14T08:24:42.998Z,39.96
2023-05-14T08:25:43.072Z,40.55
2023-05-14T08:26:43.167Z,39.51
2023-05-14T08:27:43.280Z,39.39
2023-05-14T08:28:43.325Z,40.21
2023-05-14T08:29:43.416Z,42.09
2023-05-14T08:30:43.547Z,41.84
2023-05-14T08:31:43.576Z,42.16
2023-05-14T08:32:43.693Z,41.99
2023-05-14T08:33:43.780Z,41.22
2023-05-14T08:34:44.149Z,42.25
2023-05-14T08:35:43.949Z,42.88
2023-05-14T08:36:44.012Z,41.72
2023-05-14T08:37:44.102Z,40.72
2023-05-14T08:38:44.218Z,40.96
2023-05-14T08:39:44.302Z,40.93
2023-05-14T08:40:44.380Z,40.53
2023-05-14T08:41:44.471Z,39.96
2023-05-14T08:42:44.553Z,39.46
2023-05-14T08:43:44.662Z,38.61
2023-05-14T08:44:44.729Z,37.84
2023-05-14T08:45:44.783Z,36.88
2023-05-14T08:46:44.872Z,38.34
2023-05-14T08:47:44.984Z,37.41
2023-05-14T08:48:45.147Z,38.29
2023-05-14T08:49:45.171Z,39.01
2023-05-14T08:50:45.244Z,41.22
2023-05-14T08:51:45.337Z,40.61
2023-05-14T08:52:45.437Z,41.38
2023-05-14T08:53:45.526Z,42.47
2023-05-14T08:54:45.636Z,42.11
2023-05-14T08:55:45.716Z,43.06
2023-05-14T08:56:45.809Z,43.11
2023-05-14T08:57:45.869Z,43.54
2023-05-14T08:58:45.962Z,44.33
2023-05-14T08:59:46.068Z,46.04
2023-05-14T09:00:46.114Z,46.78
2023-05-14T09:01:46.265Z,45.43
2023-05-14T09:02:46.345Z,44.53
2023-05-14T09:03:46.427Z,42.90
2023-05-14T09:04:46.494Z,42.72
2023-05-14T09:05:47.206Z,43.22
2023-05-14T09:06:46.650Z,42.05
2023-05-14T09:07:46.760Z,40.82
2023-05-14T09:08:46.832Z,40.49
2023-05-14T09:09:46.925Z,39.53
2023-05-14T09:10:47.026Z,38.92
2023-05-14T09:11:47.114Z,38.89
2023-05-14T09:12:47.213Z,39.31
2023-05-14T09:13:47.261Z,39.39
2023-05-14T09:14:47.391Z,40.86
2023-05-14T09:15:47.458Z,41.07
2023-05-14T09:16:47.569Z,41.56
2023-05-14T09:17:47.679Z,39.72
2023-05-14T09:18:47.802Z,38.28
2023-05-14T09:19:47.792Z,36.79
2023-05-14T09:20:47.880Z,38.23
2023-05-14T09:21:47.981Z,38.59
2023-05-14T09:22:48.073Z,40.30
2023-05-14T09:23:48.169Z,39.87
2023-05-14T09:24:48.229Z,38.73
2023-05-14T09:25:48.326Z,38.21
2023-05-14T09:26:48.430Z,37.91
2023-05-14T09:27:48.473Z,37.78
2023-05-14T09:28:48.562Z,36.51
2023-05-14T09:29:48.660Z,36.04
2023-05-14T09:30:48.738Z,35.35
2023-05-14T09:31:48.860Z,36.88
2023-05-14T09:32:48.990Z,36.39
2023-05-14T09:33:48.993Z,35.00
2023-05-14T09:34:49.089Z,35.09
2023-05-14T09:35:49.170Z,33.88
2023-05-14T09:36:49.258Z,35.50
2023-05-14T09:37:49.354Z,36.56
2023-05-14T09:38:49.445Z,37.70
2023-05-14T09:39:49.540Z,38.47
2023-05-14T09:40:49.617Z,38.37
2023-05-14T09:41:49.714Z,38.26
2023-05-14T09:42:49.804Z,38.07
2023-05-14T09:43:49.898Z,38.59
2023-05-14T09:44:50.009Z,37.05
2023-05-14T09:45:50.125Z,36.30
2023-05-14T09:46:50.205Z,35.25
2023-05-14T09:47:50.365Z,35.17
2023-05-14T09:48:50.311Z,36.95
2023-05-14T09:49:50.403Z,36.83
2023-05-14T09:50:50.499Z,37.31
2023-05-14T09:51:50.595Z,38.48
2023-05-14T09:52:50.669Z,38.70
2023-05-14T09:53:50.809Z,39.61
2023-05-14T09:54:50.836Z,39.64
2023-05-14T09:55:50.887Z,39.45
2023-05-14T09:56:50.980Z,40.47
2023-05-14T09:57:51.072Z,40.91
2023-05-14T09:58:51.162Z,41.56
2023-05-14T09:59:51.249Z,41.33
2023-05-14T10:00:51.379Z,41.50
2023-05-14T10:01:51.443Z,41.98
2023-05-14T10:02:51.567Z,43.11
2023-05-14T10:03:51.609Z,43.06
2023-05-14T10:04:51.729Z,44.01
2023-05-14T10:05:51.779Z,44.20
2023-05-14T10:06:51.882Z,44.63
2023-05-14T10:07:51.976Z,43.73
2023-05-14T10:08:52.044Z,43.38
2023-05-14T10:09:52.137Z,42.89
2023-05-14T10:10:52.233Z,42.79
2023-05-14T10:11:52.302Z,39.60
2023-05-14T10:12:52.397Z,38.16
2023-05-14T10:13:52.415Z,37.61
2023-05-14T10:14:52.511Z,38.12
2023-05-14T10:15:52.626Z,39.16
2023-05-14T10:16:52.789Z,39.27
2023-05-14T10:17:52.824Z,39.27
2023-05-14T10:18:53.858Z,39.90
2023-05-14T10:19:52.968Z,38.15
2023-05-14T10:20:53.034Z,35.63
2023-05-14T10:21:53.102Z,33.67
2023-05-14T10:22:53.178Z,32.28
2023-05-14T10:23:53.230Z,31.09
2023-05-14T10:24:53.331Z,30.73
2023-05-14T10:25:53.448Z,31.37
2023-05-14T10:26:53.508Z,31.29
2023-05-14T10:27:53.595Z,32.46
2023-05-14T10:28:53.717Z,32.62
2023-05-14T10:29:53.825Z,33.78
2023-05-14T10:30:53.860Z,33.22
2023-05-14T10:31:53.948Z,32.79
2023-05-14T10:32:54.006Z,32.90
2023-05-14T10:33:54.067Z,33.02
2023-05-14T10:34:54.147Z,32.25
2023-05-14T10:35:54.244Z,30.60
2023-05-14T10:36:54.334Z,30.81
2023-05-14T10:37:54.467Z,31.82
2023-05-14T10:38:54.507Z,33.23
2023-05-14T10:39:54.587Z,33.78
2023-05-14T10:40:54.705Z,33.75
2023-05-14T10:41:54.758Z,34.95
2023-05-14T10:42:54.853Z,34.22
2023-05-14T10:43:54.962Z,34.63
2023-05-14T10:44:55.011Z,33.24
2023-05-14T10:45:55.108Z,33.25
2023-05-14T10:46:55.233Z,34.08
2023-05-14T10:47:55.302Z,34.88
2023-05-14T10:48:55.330Z,35.45
2023-05-14T10:49:55.402Z,35.61
2023-05-14T10:50:55.557Z,36.18
2023-05-14T10:51:55.534Z,36.88
2023-05-14T10:52:55.652Z,35.97
2023-05-14T10:53:55.708Z,36.10
2023-05-14T10:54:55.811Z,34.98
2023-05-14T10:55:55.902Z,34.69
2023-05-14T10:56:55.995Z,33.91
2023-05-14T10:57:56.082Z,34.28
2023-05-14T10:58:56.163Z,34.51
2023-05-14T10:59:56.256Z,34.72
2023-05-14T11:00:56.292Z,34.09
2023-05-14T11:01:56.410Z,35.40
2023-05-14T11:02:56.661Z,35.46
2023-05-14T11:03:56.589Z,34.63
2023-05-14T11:04:56.639Z,34.40
2023-05-14T11:05:56.692Z,34.97
2023-05-14T11:06:56.783Z,36.11
2023-05-14T11:07:56.897Z,35.92
2023-05-14T11:08:56.943Z,35.20
2023-05-14T11:09:57.038Z,35.27
2023-05-14T11:10:57.138Z,35.31
2023-05-14T11:11:57.230Z,35.95
2023-05-14T11:12:57.380Z,35.97
2023-05-14T11:13:58.261Z,35.82
2023-05-14T11:14:57.475Z,35.46
2023-05-14T11:15:57.591Z,36.17
2023-05-14T11:16:57.737Z,37.27
2023-05-14T11:17:57.760Z,37.19
2023-05-14T11:18:57.841Z,36.17
2023-05-14T11:19:57.910Z,36.61
2023-05-14T11:20:57.959Z,36.56
2023-05-14T11:21:58.043Z,37.61
2023-05-14T11:22:58.136Z,37.74
2023-05-14T11:23:58.231Z,38.15
2023-05-14T11:24:58.324Z,36.92
2023-05-14T11:25:58.489Z,36.90
2023-05-14T11:26:58.543Z,37.94
2023-05-14T11:27:58.642Z,36.75
2023-05-14T11:28:58.712Z,37.25
2023-05-14T11:29:58.790Z,37.46
2023-05-14T11:30:58.845Z,37.58
2023-05-14T11:31:59.014Z,37.55
2023-05-14T11:33:01.193Z,37.85
2023-05-14T11:33:59.112Z,38.50
2023-05-14T11:34:59.217Z,38.87
2023-05-14T11:35:59.284Z,39.33
2023-05-14T11:36:59.386Z,40.76
2023-05-14T11:37:59.484Z,43.19
2023-05-14T11:38:59.565Z,43.95
2023-05-14T11:39:59.652Z,45.05
2023-05-14T11:40:59.750Z,44.94
2023-05-14T11:41:59.844Z,45.22
2023-05-14T11:42:59.936Z,45.30
2023-05-14T11:44:00.056Z,45.75
2023-05-14T11:45:00.171Z,45.90
2023-05-14T11:46:00.281Z,46.00
2023-05-14T11:47:00.297Z,45.61
2023-05-14T11:48:00.380Z,45.28
2023-05-14T11:49:00.399Z,45.30
2023-05-14T11:50:00.490Z,45.39
2023-05-14T11:51:00.585Z,45.04
2023-05-14T11:52:00.691Z,44.24
2023-05-14T11:53:00.769Z,44.57
2023-05-14T11:54:00.861Z,44.54
2023-05-14T11:55:00.947Z,44.45
2023-05-14T11:56:01.046Z,44.52
2023-05-14T11:57:01.100Z,44.58
2023-05-14T11:58:01.225Z,45.12
2023-05-14T11:59:01.283Z,44.30
2023-05-14T12:00:01.391Z,44.97
2023-05-14T12:01:01.432Z,45.13
2023-05-14T12:02:01.525Z,45.33
2023-05-14T12:03:01.733Z,45.99
2023-05-14T12:04:01.850Z,46.16
2023-05-14T12:05:01.780Z,46.88
2023-05-14T12:06:01.873Z,46.73
2023-05-14T12:07:01.963Z,46.80
2023-05-14T12:08:02.894Z,46.43
2023-05-14T12:09:02.146Z,46.44
2023-05-14T12:10:02.237Z,47.39
2023-05-14T12:11:02.315Z,47.42
2023-05-14T12:12:02.408Z,47.97
2023-05-14T12:13:02.505Z,47.96
2023-05-14T12:14:02.578Z,48.06
2023-05-14T12:15:02.689Z,49.00
2023-05-14T12:16:02.876Z,49.20
2023-05-14T12:17:02.832Z,48.74
2023-05-14T12:18:03.035Z,49.16
2023-05-14T12:19:03.080Z,48.80
2023-05-14T12:20:03.133Z,49.01
2023-05-14T12:21:03.207Z,49.17
2023-05-14T12:22:03.382Z,48.67
2023-05-14T12:23:03.395Z,49.14
2023-05-14T12:24:03.487Z,48.80
2023-05-14T12:25:03.597Z,48.80
2023-05-14T12:26:03.680Z,49.27
2023-05-14T12:27:03.768Z,48.85
2023-05-14T12:28:03.847Z,49.04
2023-05-14T12:29:03.937Z,49.92
2023-05-14T12:30:34.200Z,48.85
2023-05-14T12:31:04.202Z,48.81
2023-05-14T12:32:04.249Z,48.98
2023-05-14T12:33:04.348Z,48.98
2023-05-14T12:34:04.402Z,49.54
2023-05-14T12:35:04.511Z,49.18
2023-05-14T12:36:20.447Z,48.98
2023-05-14T12:37:04.647Z,49.35
2023-05-14T12:38:04.773Z,49.55
2023-05-14T12:39:04.810Z,50.15
2023-05-14T12:40:04.898Z,49.55
2023-05-14T12:41:04.985Z,49.49
2023-05-14T12:42:05.070Z,49.90
2023-05-14T12:43:05.163Z,49.71
2023-05-14T12:44:05.312Z,49.32
2023-05-14T12:45:05.335Z,49.84
2023-05-14T12:46:05.422Z,49.94
2023-05-14T12:47:05.540Z,50.30
2023-05-14T12:48:05.655Z,50.49
2023-05-14T12:49:05.618Z,50.84
2023-05-14T12:50:05.714Z,50.73
2023-05-14T12:51:05.808Z,50.48
2023-05-14T12:52:25.752Z,50.14
2023-05-14T12:53:05.980Z,49.56